sensor_id;sensor_type;location;lat;lon;timestamp;P1;durP1;ratioP1;P2;durP2;ratioP2
32894;SDS011;19251;49.484;8.260;2023-08-06T00:02:09;3.08;;;2.00;;
32894;SDS011;19251;49.484;8.260;2023-08-06T00:07:11;4.35;;;2.62;;
32894;SDS011;19251;49.484;8.260;2023-08-06T00:12:13;2.30;;;1.95;;
32894;SDS011;19251;49.484;8.260;2023-08-06T00:17:15;1.70;;;1.50;;
32894;SDS011;19251;49.484;8.260;2023-08-06T00:22:18;1.70;;;1.60;;
32894;SDS011;19251;49.484;8.260;2023-08-06T00:27:20;2.37;;;1.62;;
32894;SDS011;19251;49.484;8.260;2023-08-06T00:37:24;6.95;;;2.70;;
32894;SDS011;19251;49.484;8.260;2023-08-06T00:42:26;2.55;;;1.65;;
32894;SDS011;19251;49.484;8.260;2023-08-06T00:47:29;3.40;;;1.95;;
32894;SDS011;19251;49.484;8.260;2023-08-06T00:52:31;5.22;;;2.35;;
32894;SDS011;19251;49.484;8.260;2023-08-06T00:57:33;1.73;;;1.62;;
32894;SDS011;19251;49.484;8.260;2023-08-06T01:02:36;3.28;;;2.00;;
32894;SDS011;19251;49.484;8.260;2023-08-06T01:17:55;3.95;;;1.85;;
32894;SDS011;19251;49.484;8.260;2023-08-06T01:22:57;12.60;;;2.62;;
32894;SDS011;19251;49.484;8.260;2023-08-06T01:28:02;6.20;;;1.60;;
32894;SDS011;19251;49.484;8.260;2023-08-06T01:33:12;4.35;;;1.75;;
32894;SDS011;19251;49.484;8.260;2023-08-06T01:38:20;4.78;;;1.67;;
32894;SDS011;19251;49.484;8.260;2023-08-06T01:43:23;5.07;;;1.98;;
32894;SDS011;19251;49.484;8.260;2023-08-06T01:48:25;3.80;;;1.70;;
32894;SDS011;19251;49.484;8.260;2023-08-06T01:53:27;5.80;;;2.53;;
32894;SDS011;19251;49.484;8.260;2023-08-06T01:58:29;3.97;;;2.17;;
32894;SDS011;19251;49.484;8.260;2023-08-06T02:03:31;2.17;;;1.70;;
32894;SDS011;19251;49.484;8.260;2023-08-06T02:08:33;2.90;;;1.80;;
32894;SDS011;19251;49.484;8.260;2023-08-06T02:13:35;3.22;;;2.08;;
32894;SDS011;19251;49.484;8.260;2023-08-06T02:18:37;4.10;;;1.90;;
32894;SDS011;19251;49.484;8.260;2023-08-06T02:23:39;1.55;;;1.45;;
32894;SDS011;19251;49.484;8.260;2023-08-06T02:28:42;6.20;;;1.98;;
32894;SDS011;19251;49.484;8.260;2023-08-06T02:33:44;5.00;;;2.42;;
32894;SDS011;19251;49.484;8.260;2023-08-06T02:38:46;1.85;;;1.50;;
32894;SDS011;19251;49.484;8.260;2023-08-06T02:48:50;2.15;;;1.50;;
32894;SDS011;19251;49.484;8.260;2023-08-06T02:53:53;2.20;;;1.70;;
32894;SDS011;19251;49.484;8.260;2023-08-06T02:58:55;3.15;;;1.48;;
32894;SDS011;19251;49.484;8.260;2023-08-06T03:03:59;1.50;;;1.33;;
32894;SDS011;19251;49.484;8.260;2023-08-06T03:09:02;2.00;;;0.90;;
32894;SDS011;19251;49.484;8.260;2023-08-06T03:14:04;5.15;;;1.52;;
32894;SDS011;19251;49.484;8.260;2023-08-06T03:19:07;2.65;;;1.48;;
32894;SDS011;19251;49.484;8.260;2023-08-06T03:24:09;7.97;;;2.15;;
32894;SDS011;19251;49.484;8.260;2023-08-06T03:29:12;2.22;;;1.33;;
32894;SDS011;19251;49.484;8.260;2023-08-06T03:34:16;3.65;;;1.95;;
32894;SDS011;19251;49.484;8.260;2023-08-06T03:39:19;3.97;;;1.52;;
32894;SDS011;19251;49.484;8.260;2023-08-06T03:44:21;2.05;;;0.98;;
32894;SDS011;19251;49.484;8.260;2023-08-06T03:49:23;1.98;;;0.88;;
32894;SDS011;19251;49.484;8.260;2023-08-06T03:54:26;1.05;;;0.43;;
32894;SDS011;19251;49.484;8.260;2023-08-06T03:59:28;1.95;;;0.40;;
32894;SDS011;19251;49.484;8.260;2023-08-06T04:04:30;0.57;;;0.57;;
32894;SDS011;19251;49.484;8.260;2023-08-06T04:09:33;1.15;;;0.47;;
32894;SDS011;19251;49.484;8.260;2023-08-06T04:14:35;1.02;;;0.22;;
32894;SDS011;19251;49.484;8.260;2023-08-06T04:19:37;0.62;;;0.45;;
32894;SDS011;19251;49.484;8.260;2023-08-06T04:24:39;0.52;;;0.20;;
32894;SDS011;19251;49.484;8.260;2023-08-06T04:29:41;1.95;;;0.60;;
32894;SDS011;19251;49.484;8.260;2023-08-06T04:34:44;1.45;;;0.93;;
32894;SDS011;19251;49.484;8.260;2023-08-06T04:39:46;12.15;;;0.40;;
32894;SDS011;19251;49.484;8.260;2023-08-06T04:44:49;0.20;;;0.20;;
32894;SDS011;19251;49.484;8.260;2023-08-06T04:49:53;1.30;;;0.40;;
32894;SDS011;19251;49.484;8.260;2023-08-06T04:54:55;1.73;;;0.60;;
32894;SDS011;19251;49.484;8.260;2023-08-06T04:59:57;9.02;;;1.25;;
32894;SDS011;19251;49.484;8.260;2023-08-06T05:04:59;2.45;;;0.98;;
32894;SDS011;19251;49.484;8.260;2023-08-06T05:10:01;1.17;;;0.50;;
32894;SDS011;19251;49.484;8.260;2023-08-06T05:15:04;1.80;;;0.62;;
32894;SDS011;19251;49.484;8.260;2023-08-06T05:20:07;1.55;;;0.45;;
32894;SDS011;19251;49.484;8.260;2023-08-06T05:25:12;0.85;;;0.30;;
32894;SDS011;19251;49.484;8.260;2023-08-06T05:30:15;0.75;;;0.20;;
32894;SDS011;19251;49.484;8.260;2023-08-06T05:35:18;3.00;;;0.30;;
32894;SDS011;19251;49.484;8.260;2023-08-06T05:40:20;0.40;;;0.20;;
32894;SDS011;19251;49.484;8.260;2023-08-06T05:45:22;0.40;;;0.30;;
32894;SDS011;19251;49.484;8.260;2023-08-06T05:50:24;0.22;;;0.13;;
32894;SDS011;19251;49.484;8.260;2023-08-06T06:00:30;0.28;;;0.15;;
32894;SDS011;19251;49.484;8.260;2023-08-06T06:05:32;1.65;;;0.25;;
32894;SDS011;19251;49.484;8.260;2023-08-06T06:10:34;0.55;;;0.17;;
32894;SDS011;19251;49.484;8.260;2023-08-06T06:15:37;0.75;;;0.22;;
32894;SDS011;19251;49.484;8.260;2023-08-06T06:20:39;0.30;;;0.20;;
32894;SDS011;19251;49.484;8.260;2023-08-06T06:25:48;1.77;;;0.47;;
32894;SDS011;19251;49.484;8.260;2023-08-06T06:30:53;0.82;;;0.30;;
32894;SDS011;19251;49.484;8.260;2023-08-06T06:35:55;1.10;;;0.30;;
32894;SDS011;19251;49.484;8.260;2023-08-06T06:40:57;0.28;;;0.15;;
32894;SDS011;19251;49.484;8.260;2023-08-06T06:45:59;0.62;;;0.10;;
32894;SDS011;19251;49.484;8.260;2023-08-06T06:56:04;0.52;;;0.10;;
32894;SDS011;19251;49.484;8.260;2023-08-06T07:01:07;0.30;;;0.10;;
32894;SDS011;19251;49.484;8.260;2023-08-06T07:06:11;0.10;;;0.00;;
32894;SDS011;19251;49.484;8.260;2023-08-06T07:16:16;0.32;;;0.00;;
32894;SDS011;19251;49.484;8.260;2023-08-06T07:21:18;0.10;;;0.10;;
32894;SDS011;19251;49.484;8.260;2023-08-06T07:26:20;0.00;;;0.00;;
32894;SDS011;19251;49.484;8.260;2023-08-06T07:31:22;0.10;;;0.08;;
32894;SDS011;19251;49.484;8.260;2023-08-06T07:36:24;1.12;;;0.25;;
32894;SDS011;19251;49.484;8.260;2023-08-06T07:41:27;0.20;;;0.08;;
32894;SDS011;19251;49.484;8.260;2023-08-06T07:46:29;0.25;;;0.13;;
32894;SDS011;19251;49.484;8.260;2023-08-06T07:51:31;0.30;;;0.30;;
32894;SDS011;19251;49.484;8.260;2023-08-06T07:56:34;0.15;;;0.15;;
32894;SDS011;19251;49.484;8.260;2023-08-06T08:01:38;0.50;;;0.22;;
32894;SDS011;19251;49.484;8.260;2023-08-06T08:06:41;0.52;;;0.30;;
32894;SDS011;19251;49.484;8.260;2023-08-06T08:11:43;1.30;;;0.40;;
32894;SDS011;19251;49.484;8.260;2023-08-06T08:16:46;2.58;;;0.47;;
32894;SDS011;19251;49.484;8.260;2023-08-06T08:21:48;1.08;;;0.35;;
32894;SDS011;19251;49.484;8.260;2023-08-06T08:26:51;5.15;;;0.60;;
32894;SDS011;19251;49.484;8.260;2023-08-06T08:31:53;0.20;;;0.08;;
32894;SDS011;19251;49.484;8.260;2023-08-06T08:41:58;0.20;;;0.17;;
32894;SDS011;19251;49.484;8.260;2023-08-06T08:52:03;0.52;;;0.08;;
32894;SDS011;19251;49.484;8.260;2023-08-06T08:57:14;0.73;;;0.15;;
32894;SDS011;19251;49.484;8.260;2023-08-06T09:02:16;0.10;;;0.10;;
32894;SDS011;19251;49.484;8.260;2023-08-06T09:07:19;0.30;;;0.10;;
32894;SDS011;19251;49.484;8.260;2023-08-06T09:12:23;0.65;;;0.08;;
32894;SDS011;19251;49.484;8.260;2023-08-06T09:22:33;0.75;;;0.20;;
32894;SDS011;19251;49.484;8.260;2023-08-06T09:27:37;0.28;;;0.00;;
32894;SDS011;19251;49.484;8.260;2023-08-06T09:32:45;1.15;;;0.03;;
32894;SDS011;19251;49.484;8.260;2023-08-06T09:37:49;0.20;;;0.20;;
32894;SDS011;19251;49.484;8.260;2023-08-06T09:42:51;0.70;;;0.10;;
32894;SDS011;19251;49.484;8.260;2023-08-06T09:47:56;0.65;;;0.30;;
32894;SDS011;19251;49.484;8.260;2023-08-06T09:53:00;0.20;;;0.10;;
32894;SDS011;19251;49.484;8.260;2023-08-06T09:58:02;0.10;;;0.10;;
32894;SDS011;19251;49.484;8.260;2023-08-06T10:03:05;0.17;;;0.15;;
32894;SDS011;19251;49.484;8.260;2023-08-06T10:08:09;0.20;;;0.00;;
32894;SDS011;19251;49.484;8.260;2023-08-06T10:13:11;0.10;;;0.10;;
32894;SDS011;19251;49.484;8.260;2023-08-06T10:18:15;0.37;;;0.20;;
32894;SDS011;19251;49.484;8.260;2023-08-06T10:23:30;3.53;;;0.10;;
32894;SDS011;19251;49.484;8.260;2023-08-06T10:28:36;0.03;;;0.03;;
32894;SDS011;19251;49.484;8.260;2023-08-06T10:38:49;0.47;;;0.20;;
32894;SDS011;19251;49.484;8.260;2023-08-06T10:43:51;4.75;;;0.30;;
32894;SDS011;19251;49.484;8.260;2023-08-06T10:48:54;0.10;;;0.10;;
32894;SDS011;19251;49.484;8.260;2023-08-06T10:53:56;0.20;;;0.15;;
32894;SDS011;19251;49.484;8.260;2023-08-06T10:58:59;0.47;;;0.32;;
32894;SDS011;19251;49.484;8.260;2023-08-06T11:04:02;0.47;;;0.20;;
32894;SDS011;19251;49.484;8.260;2023-08-06T11:09:06;0.30;;;0.30;;
32894;SDS011;19251;49.484;8.260;2023-08-06T11:14:14;0.20;;;0.20;;
32894;SDS011;19251;49.484;8.260;2023-08-06T11:19:17;1.00;;;0.20;;
32894;SDS011;19251;49.484;8.260;2023-08-06T11:24:19;0.88;;;0.30;;
32894;SDS011;19251;49.484;8.260;2023-08-06T11:29:21;1.02;;;0.50;;
32894;SDS011;19251;49.484;8.260;2023-08-06T11:34:24;0.45;;;0.15;;
32894;SDS011;19251;49.484;8.260;2023-08-06T11:39:26;0.77;;;0.30;;
32894;SDS011;19251;49.484;8.260;2023-08-06T11:44:33;0.40;;;0.40;;
32894;SDS011;19251;49.484;8.260;2023-08-06T11:49:44;1.12;;;0.55;;
32894;SDS011;19251;49.484;8.260;2023-08-06T11:55:02;0.73;;;0.47;;
32894;SDS011;19251;49.484;8.260;2023-08-06T12:00:06;1.35;;;0.65;;
32894;SDS011;19251;49.484;8.260;2023-08-06T12:05:13;2.60;;;1.00;;
32894;SDS011;19251;49.484;8.260;2023-08-06T12:10:16;2.55;;;0.60;;
32894;SDS011;19251;49.484;8.260;2023-08-06T12:15:21;1.98;;;0.73;;
32894;SDS011;19251;49.484;8.260;2023-08-06T12:20:24;3.58;;;0.43;;
32894;SDS011;19251;49.484;8.260;2023-08-06T12:25:26;2.45;;;1.08;;
32894;SDS011;19251;49.484;8.260;2023-08-06T12:30:28;2.58;;;0.90;;
32894;SDS011;19251;49.484;8.260;2023-08-06T12:35:31;0.65;;;0.30;;
32894;SDS011;19251;49.484;8.260;2023-08-06T12:40:33;1.37;;;0.35;;
32894;SDS011;19251;49.484;8.260;2023-08-06T12:45:39;4.05;;;0.57;;
32894;SDS011;19251;49.484;8.260;2023-08-06T12:50:41;0.85;;;0.50;;
32894;SDS011;19251;49.484;8.260;2023-08-06T12:55:43;1.02;;;0.50;;
32894;SDS011;19251;49.484;8.260;2023-08-06T13:00:45;2.60;;;0.37;;
32894;SDS011;19251;49.484;8.260;2023-08-06T13:05:47;1.48;;;0.40;;
32894;SDS011;19251;49.484;8.260;2023-08-06T13:10:51;1.70;;;0.50;;
32894;SDS011;19251;49.484;8.260;2023-08-06T13:15:53;0.45;;;0.40;;
32894;SDS011;19251;49.484;8.260;2023-08-06T13:20:55;2.05;;;0.60;;
32894;SDS011;19251;49.484;8.260;2023-08-06T13:25:57;0.93;;;0.47;;
32894;SDS011;19251;49.484;8.260;2023-08-06T13:36:02;1.67;;;0.57;;
32894;SDS011;19251;49.484;8.260;2023-08-06T13:41:04;0.43;;;0.40;;
32894;SDS011;19251;49.484;8.260;2023-08-06T13:51:09;1.20;;;0.20;;
32894;SDS011;19251;49.484;8.260;2023-08-06T13:56:12;1.62;;;0.17;;
32894;SDS011;19251;49.484;8.260;2023-08-06T14:01:19;1.83;;;0.40;;
32894;SDS011;19251;49.484;8.260;2023-08-06T14:06:23;1.40;;;0.45;;
32894;SDS011;19251;49.484;8.260;2023-08-06T14:11:25;0.62;;;0.45;;
32894;SDS011;19251;49.484;8.260;2023-08-06T14:16:27;0.40;;;0.37;;
32894;SDS011;19251;49.484;8.260;2023-08-06T14:21:29;0.73;;;0.50;;
32894;SDS011;19251;49.484;8.260;2023-08-06T14:26:31;1.27;;;0.52;;
32894;SDS011;19251;49.484;8.260;2023-08-06T14:31:33;1.08;;;0.40;;
32894;SDS011;19251;49.484;8.260;2023-08-06T14:36:35;1.58;;;0.70;;
32894;SDS011;19251;49.484;8.260;2023-08-06T14:41:37;4.97;;;0.73;;
32894;SDS011;19251;49.484;8.260;2023-08-06T14:46:40;2.75;;;0.60;;
32894;SDS011;19251;49.484;8.260;2023-08-06T14:51:42;1.85;;;0.20;;
32894;SDS011;19251;49.484;8.260;2023-08-06T14:56:45;5.22;;;0.70;;
32894;SDS011;19251;49.484;8.260;2023-08-06T15:01:47;2.17;;;0.55;;
32894;SDS011;19251;49.484;8.260;2023-08-06T15:06:49;2.30;;;0.20;;
32894;SDS011;19251;49.484;8.260;2023-08-06T15:11:51;1.73;;;0.52;;
32894;SDS011;19251;49.484;8.260;2023-08-06T15:16:54;1.05;;;0.30;;
32894;SDS011;19251;49.484;8.260;2023-08-06T15:21:58;3.42;;;0.60;;
32894;SDS011;19251;49.484;8.260;2023-08-06T15:27:01;1.15;;;0.50;;
32894;SDS011;19251;49.484;8.260;2023-08-06T15:32:03;1.23;;;0.50;;
32894;SDS011;19251;49.484;8.260;2023-08-06T15:37:05;0.82;;;0.32;;
32894;SDS011;19251;49.484;8.260;2023-08-06T15:42:09;0.40;;;0.25;;
32894;SDS011;19251;49.484;8.260;2023-08-06T15:47:11;6.00;;;0.62;;
32894;SDS011;19251;49.484;8.260;2023-08-06T15:52:14;4.53;;;0.68;;
32894;SDS011;19251;49.484;8.260;2023-08-06T15:57:18;1.00;;;0.35;;
32894;SDS011;19251;49.484;8.260;2023-08-06T16:02:21;2.62;;;0.40;;
32894;SDS011;19251;49.484;8.260;2023-08-06T16:07:23;3.08;;;0.50;;
32894;SDS011;19251;49.484;8.260;2023-08-06T16:12:25;1.17;;;0.50;;
32894;SDS011;19251;49.484;8.260;2023-08-06T16:17:28;0.82;;;0.45;;
32894;SDS011;19251;49.484;8.260;2023-08-06T16:22:30;2.72;;;0.60;;
32894;SDS011;19251;49.484;8.260;2023-08-06T16:27:32;3.92;;;0.77;;
32894;SDS011;19251;49.484;8.260;2023-08-06T16:32:36;5.72;;;0.57;;
32894;SDS011;19251;49.484;8.260;2023-08-06T16:37:38;1.23;;;0.40;;
32894;SDS011;19251;49.484;8.260;2023-08-06T16:42:40;2.37;;;0.65;;
32894;SDS011;19251;49.484;8.260;2023-08-06T16:47:43;1.37;;;0.43;;
32894;SDS011;19251;49.484;8.260;2023-08-06T16:52:45;0.75;;;0.40;;
32894;SDS011;19251;49.484;8.260;2023-08-06T16:57:47;0.73;;;0.30;;
32894;SDS011;19251;49.484;8.260;2023-08-06T17:02:49;3.67;;;0.73;;
32894;SDS011;19251;49.484;8.260;2023-08-06T17:07:53;1.70;;;0.45;;
32894;SDS011;19251;49.484;8.260;2023-08-06T17:12:55;1.05;;;0.30;;
32894;SDS011;19251;49.484;8.260;2023-08-06T17:18:17;1.02;;;0.52;;
32894;SDS011;19251;49.484;8.260;2023-08-06T17:23:19;2.25;;;0.43;;
32894;SDS011;19251;49.484;8.260;2023-08-06T17:28:22;1.30;;;0.55;;
32894;SDS011;19251;49.484;8.260;2023-08-06T17:33:24;3.75;;;0.50;;
32894;SDS011;19251;49.484;8.260;2023-08-06T17:38:26;8.88;;;1.30;;
32894;SDS011;19251;49.484;8.260;2023-08-06T17:43:28;4.37;;;0.75;;
32894;SDS011;19251;49.484;8.260;2023-08-06T17:48:30;1.12;;;0.60;;
32894;SDS011;19251;49.484;8.260;2023-08-06T17:53:32;2.10;;;0.50;;
32894;SDS011;19251;49.484;8.260;2023-08-06T17:58:35;0.73;;;0.47;;
32894;SDS011;19251;49.484;8.260;2023-08-06T18:03:37;1.60;;;0.70;;
32894;SDS011;19251;49.484;8.260;2023-08-06T18:08:39;0.77;;;0.40;;
32894;SDS011;19251;49.484;8.260;2023-08-06T18:13:41;0.80;;;0.73;;
32894;SDS011;19251;49.484;8.260;2023-08-06T18:18:43;1.42;;;0.80;;
32894;SDS011;19251;49.484;8.260;2023-08-06T18:23:45;0.50;;;0.45;;
32894;SDS011;19251;49.484;8.260;2023-08-06T18:33:50;2.20;;;0.90;;
32894;SDS011;19251;49.484;8.260;2023-08-06T18:38:52;1.27;;;0.65;;
32894;SDS011;19251;49.484;8.260;2023-08-06T18:43:54;2.87;;;0.60;;
32894;SDS011;19251;49.484;8.260;2023-08-06T18:48:56;3.05;;;0.40;;
32894;SDS011;19251;49.484;8.260;2023-08-06T18:53:58;1.23;;;0.40;;
32894;SDS011;19251;49.484;8.260;2023-08-06T18:59:00;0.57;;;0.30;;
32894;SDS011;19251;49.484;8.260;2023-08-06T19:04:02;2.42;;;0.50;;
32894;SDS011;19251;49.484;8.260;2023-08-06T19:09:05;0.75;;;0.40;;
32894;SDS011;19251;49.484;8.260;2023-08-06T19:14:07;2.80;;;0.45;;
32894;SDS011;19251;49.484;8.260;2023-08-06T19:19:09;0.77;;;0.77;;
32894;SDS011;19251;49.484;8.260;2023-08-06T19:24:11;1.45;;;0.62;;
32894;SDS011;19251;49.484;8.260;2023-08-06T19:29:15;1.80;;;0.77;;
32894;SDS011;19251;49.484;8.260;2023-08-06T19:34:17;0.40;;;0.35;;
32894;SDS011;19251;49.484;8.260;2023-08-06T19:39:19;2.83;;;0.80;;
32894;SDS011;19251;49.484;8.260;2023-08-06T19:44:21;2.05;;;0.93;;
32894;SDS011;19251;49.484;8.260;2023-08-06T19:49:23;3.62;;;0.90;;
32894;SDS011;19251;49.484;8.260;2023-08-06T19:54:26;2.17;;;0.68;;
32894;SDS011;19251;49.484;8.260;2023-08-06T19:59:28;1.50;;;0.70;;
32894;SDS011;19251;49.484;8.260;2023-08-06T20:04:30;3.80;;;0.62;;
32894;SDS011;19251;49.484;8.260;2023-08-06T20:09:32;3.80;;;0.40;;
32894;SDS011;19251;49.484;8.260;2023-08-06T20:14:34;2.37;;;0.75;;
32894;SDS011;19251;49.484;8.260;2023-08-06T20:19:36;1.25;;;0.55;;
32894;SDS011;19251;49.484;8.260;2023-08-06T20:24:39;5.87;;;0.47;;
32894;SDS011;19251;49.484;8.260;2023-08-06T20:29:41;2.80;;;0.40;;
32894;SDS011;19251;49.484;8.260;2023-08-06T20:34:43;6.97;;;0.62;;
32894;SDS011;19251;49.484;8.260;2023-08-06T20:39:47;1.23;;;0.68;;
32894;SDS011;19251;49.484;8.260;2023-08-06T20:44:49;2.35;;;0.90;;
32894;SDS011;19251;49.484;8.260;2023-08-06T20:49:52;4.05;;;0.88;;
32894;SDS011;19251;49.484;8.260;2023-08-06T20:54:54;2.20;;;0.85;;
32894;SDS011;19251;49.484;8.260;2023-08-06T20:59:56;1.83;;;0.62;;
32894;SDS011;19251;49.484;8.260;2023-08-06T21:04:58;3.20;;;1.08;;
32894;SDS011;19251;49.484;8.260;2023-08-06T21:10:00;4.80;;;1.20;;
32894;SDS011;19251;49.484;8.260;2023-08-06T21:15:03;4.62;;;1.27;;
32894;SDS011;19251;49.484;8.260;2023-08-06T21:20:06;3.75;;;1.00;;
32894;SDS011;19251;49.484;8.260;2023-08-06T21:25:10;6.85;;;1.20;;
32894;SDS011;19251;49.484;8.260;2023-08-06T21:30:12;5.97;;;1.00;;
32894;SDS011;19251;49.484;8.260;2023-08-06T21:35:15;3.15;;;1.17;;
32894;SDS011;19251;49.484;8.260;2023-08-06T21:40:17;5.47;;;1.08;;
32894;SDS011;19251;49.484;8.260;2023-08-06T21:45:19;4.37;;;1.67;;
32894;SDS011;19251;49.484;8.260;2023-08-06T21:50:22;3.42;;;0.93;;
32894;SDS011;19251;49.484;8.260;2023-08-06T21:55:24;5.82;;;1.50;;
32894;SDS011;19251;49.484;8.260;2023-08-06T22:00:26;1.35;;;0.90;;
32894;SDS011;19251;49.484;8.260;2023-08-06T22:05:28;4.75;;;1.12;;
32894;SDS011;19251;49.484;8.260;2023-08-06T22:10:30;10.45;;;2.20;;
32894;SDS011;19251;49.484;8.260;2023-08-06T22:15:33;6.18;;;1.35;;
32894;SDS011;19251;49.484;8.260;2023-08-06T22:20:35;3.70;;;1.00;;
32894;SDS011;19251;49.484;8.260;2023-08-06T22:25:37;2.53;;;1.37;;
32894;SDS011;19251;49.484;8.260;2023-08-06T22:30:39;2.58;;;1.50;;
32894;SDS011;19251;49.484;8.260;2023-08-06T22:35:42;4.32;;;1.50;;
32894;SDS011;19251;49.484;8.260;2023-08-06T22:40:44;3.00;;;1.30;;
32894;SDS011;19251;49.484;8.260;2023-08-06T22:45:46;5.22;;;1.40;;
32894;SDS011;19251;49.484;8.260;2023-08-06T22:50:48;3.28;;;1.42;;
32894;SDS011;19251;49.484;8.260;2023-08-06T22:55:50;4.75;;;1.70;;
32894;SDS011;19251;49.484;8.260;2023-08-06T23:00:55;5.18;;;1.48;;
32894;SDS011;19251;49.484;8.260;2023-08-06T23:05:58;8.40;;;1.60;;
32894;SDS011;19251;49.484;8.260;2023-08-06T23:11:00;5.25;;;1.40;;
32894;SDS011;19251;49.484;8.260;2023-08-06T23:16:04;6.95;;;2.10;;
32894;SDS011;19251;49.484;8.260;2023-08-06T23:21:06;6.62;;;2.12;;
32894;SDS011;19251;49.484;8.260;2023-08-06T23:26:08;6.55;;;1.52;;
32894;SDS011;19251;49.484;8.260;2023-08-06T23:31:11;4.65;;;1.73;;
32894;SDS011;19251;49.484;8.260;2023-08-06T23:41:16;4.55;;;1.35;;
32894;SDS011;19251;49.484;8.260;2023-08-06T23:46:18;7.97;;;1.57;;
32894;SDS011;19251;49.484;8.260;2023-08-06T23:51:20;6.20;;;1.50;;
32894;SDS011;19251;49.484;8.260;2023-08-06T23:56:22;5.10;;;1.20;;
